sensor_id;sensor_type;location;lat;lon;timestamp;P1;durP1;ratioP1;P2;durP2;ratioP2
20830;SDS011;10576;53.556;9.868;2023-04-15T00:00:08;4.40;;;4.00;;
20830;SDS011;10576;53.556;9.868;2023-04-15T00:02:35;4.30;;;3.90;;
20830;SDS011;10576;53.556;9.868;2023-04-15T00:05:01;5.15;;;3.90;;
20830;SDS011;10576;53.556;9.868;2023-04-15T00:07:27;7.32;;;4.45;;
20830;SDS011;10576;53.556;9.868;2023-04-15T00:09:53;4.82;;;4.00;;
20830;SDS011;10576;53.556;9.868;2023-04-15T00:12:21;4.25;;;3.85;;
20830;SDS011;10576;53.556;9.868;2023-04-15T00:14:47;4.97;;;4.47;;
20830;SDS011;10576;53.556;9.868;2023-04-15T00:17:14;6.15;;;4.15;;
20830;SDS011;10576;53.556;9.868;2023-04-15T00:19:39;5.28;;;4.47;;
20830;SDS011;10576;53.556;9.868;2023-04-15T00:22:05;5.33;;;4.57;;
20830;SDS011;10576;53.556;9.868;2023-04-15T00:24:32;5.70;;;4.85;;
20830;SDS011;10576;53.556;9.868;2023-04-15T00:26:58;6.83;;;4.80;;
20830;SDS011;10576;53.556;9.868;2023-04-15T00:29:24;6.03;;;4.38;;
20830;SDS011;10576;53.556;9.868;2023-04-15T00:31:50;4.82;;;4.30;;
20830;SDS011;10576;53.556;9.868;2023-04-15T00:34:16;5.07;;;4.57;;
20830;SDS011;10576;53.556;9.868;2023-04-15T00:36:42;5.07;;;4.40;;
20830;SDS011;10576;53.556;9.868;2023-04-15T00:39:08;5.00;;;4.38;;
20830;SDS011;10576;53.556;9.868;2023-04-15T00:41:33;4.97;;;4.47;;
20830;SDS011;10576;53.556;9.868;2023-04-15T00:44:03;5.00;;;4.50;;
20830;SDS011;10576;53.556;9.868;2023-04-15T00:46:29;4.97;;;4.47;;
20830;SDS011;10576;53.556;9.868;2023-04-15T00:48:55;5.00;;;4.50;;
20830;SDS011;10576;53.556;9.868;2023-04-15T00:51:21;5.65;;;4.75;;
20830;SDS011;10576;53.556;9.868;2023-04-15T00:53:47;5.78;;;4.60;;
20830;SDS011;10576;53.556;9.868;2023-04-15T00:56:13;5.60;;;4.53;;
20830;SDS011;10576;53.556;9.868;2023-04-15T00:58:38;5.63;;;4.85;;
20830;SDS011;10576;53.556;9.868;2023-04-15T01:01:04;5.35;;;4.78;;
20830;SDS011;10576;53.556;9.868;2023-04-15T01:03:30;5.97;;;5.10;;
20830;SDS011;10576;53.556;9.868;2023-04-15T01:05:55;5.50;;;4.80;;
20830;SDS011;10576;53.556;9.868;2023-04-15T01:08:28;5.70;;;5.03;;
20830;SDS011;10576;53.556;9.868;2023-04-15T01:10:55;6.30;;;5.40;;
20830;SDS011;10576;53.556;9.868;2023-04-15T01:13:22;7.05;;;5.30;;
20830;SDS011;10576;53.556;9.868;2023-04-15T01:15:49;7.53;;;6.15;;
20830;SDS011;10576;53.556;9.868;2023-04-15T01:18:16;7.28;;;6.00;;
20830;SDS011;10576;53.556;9.868;2023-04-15T01:20:42;6.73;;;6.13;;
20830;SDS011;10576;53.556;9.868;2023-04-15T01:23:08;7.15;;;6.30;;
20830;SDS011;10576;53.556;9.868;2023-04-15T01:25:34;7.20;;;6.35;;
20830;SDS011;10576;53.556;9.868;2023-04-15T01:28:00;6.97;;;6.22;;
20830;SDS011;10576;53.556;9.868;2023-04-15T01:30:26;6.90;;;6.20;;
20830;SDS011;10576;53.556;9.868;2023-04-15T01:32:52;7.95;;;6.82;;
20830;SDS011;10576;53.556;9.868;2023-04-15T01:35:18;8.20;;;6.90;;
20830;SDS011;10576;53.556;9.868;2023-04-15T01:37:43;9.00;;;7.20;;
20830;SDS011;10576;53.556;9.868;2023-04-15T01:40:10;9.00;;;7.20;;
20830;SDS011;10576;53.556;9.868;2023-04-15T01:42:36;7.90;;;7.10;;
20830;SDS011;10576;53.556;9.868;2023-04-15T01:45:02;8.68;;;7.38;;
20830;SDS011;10576;53.556;9.868;2023-04-15T01:47:28;8.10;;;7.30;;
20830;SDS011;10576;53.556;9.868;2023-04-15T01:49:53;7.60;;;6.80;;
20830;SDS011;10576;53.556;9.868;2023-04-15T01:52:19;8.20;;;7.05;;
20830;SDS011;10576;53.556;9.868;2023-04-15T01:54:45;7.47;;;6.73;;
20830;SDS011;10576;53.556;9.868;2023-04-15T01:57:11;8.63;;;7.30;;
20830;SDS011;10576;53.556;9.868;2023-04-15T01:59:37;7.53;;;6.70;;
20830;SDS011;10576;53.556;9.868;2023-04-15T02:02:03;7.90;;;6.82;;
20830;SDS011;10576;53.556;9.868;2023-04-15T02:04:29;8.18;;;6.65;;
20830;SDS011;10576;53.556;9.868;2023-04-15T02:06:55;8.10;;;6.78;;
20830;SDS011;10576;53.556;9.868;2023-04-15T02:09:20;7.32;;;6.63;;
20830;SDS011;10576;53.556;9.868;2023-04-15T02:11:46;7.55;;;6.60;;
20830;SDS011;10576;53.556;9.868;2023-04-15T02:14:12;7.63;;;6.85;;
20830;SDS011;10576;53.556;9.868;2023-04-15T02:16:38;8.30;;;6.43;;
20830;SDS011;10576;53.556;9.868;2023-04-15T02:19:04;7.57;;;6.45;;
20830;SDS011;10576;53.556;9.868;2023-04-15T02:21:30;7.40;;;6.60;;
20830;SDS011;10576;53.556;9.868;2023-04-15T02:23:55;7.13;;;6.23;;
20830;SDS011;10576;53.556;9.868;2023-04-15T02:26:21;7.03;;;6.20;;
20830;SDS011;10576;53.556;9.868;2023-04-15T02:28:49;7.20;;;6.50;;
20830;SDS011;10576;53.556;9.868;2023-04-15T02:31:15;7.18;;;6.20;;
20830;SDS011;10576;53.556;9.868;2023-04-15T02:33:41;6.97;;;6.28;;
20830;SDS011;10576;53.556;9.868;2023-04-15T02:36:07;7.20;;;6.20;;
20830;SDS011;10576;53.556;9.868;2023-04-15T02:38:34;8.75;;;6.13;;
20830;SDS011;10576;53.556;9.868;2023-04-15T02:40:59;7.27;;;6.50;;
20830;SDS011;10576;53.556;9.868;2023-04-15T02:43:25;7.40;;;6.57;;
20830;SDS011;10576;53.556;9.868;2023-04-15T02:45:51;7.43;;;6.60;;
20830;SDS011;10576;53.556;9.868;2023-04-15T02:48:17;8.25;;;6.40;;
20830;SDS011;10576;53.556;9.868;2023-04-15T02:50:44;7.45;;;6.40;;
20830;SDS011;10576;53.556;9.868;2023-04-15T02:53:11;7.35;;;6.50;;
20830;SDS011;10576;53.556;9.868;2023-04-15T02:55:38;8.07;;;6.40;;
20830;SDS011;10576;53.556;9.868;2023-04-15T02:58:05;7.38;;;6.57;;
20830;SDS011;10576;53.556;9.868;2023-04-15T03:00:31;7.25;;;6.47;;
20830;SDS011;10576;53.556;9.868;2023-04-15T03:03:01;7.60;;;6.80;;
20830;SDS011;10576;53.556;9.868;2023-04-15T03:05:29;7.95;;;6.93;;
20830;SDS011;10576;53.556;9.868;2023-04-15T03:07:54;8.20;;;7.00;;
20830;SDS011;10576;53.556;9.868;2023-04-15T03:10:20;9.05;;;7.60;;
20830;SDS011;10576;53.556;9.868;2023-04-15T03:12:46;9.03;;;7.50;;
20830;SDS011;10576;53.556;9.868;2023-04-15T03:15:12;8.68;;;7.45;;
20830;SDS011;10576;53.556;9.868;2023-04-15T03:17:38;9.13;;;7.45;;
20830;SDS011;10576;53.556;9.868;2023-04-15T03:20:04;11.10;;;8.25;;
20830;SDS011;10576;53.556;9.868;2023-04-15T03:22:31;10.07;;;8.25;;
20830;SDS011;10576;53.556;9.868;2023-04-15T03:24:57;9.68;;;7.72;;
20830;SDS011;10576;53.556;9.868;2023-04-15T03:27:23;10.57;;;8.37;;
20830;SDS011;10576;53.556;9.868;2023-04-15T03:29:49;9.05;;;8.05;;
20830;SDS011;10576;53.556;9.868;2023-04-15T03:32:15;10.52;;;8.52;;
20830;SDS011;10576;53.556;9.868;2023-04-15T03:34:42;10.60;;;8.63;;
20830;SDS011;10576;53.556;9.868;2023-04-15T03:37:07;12.50;;;9.02;;
20830;SDS011;10576;53.556;9.868;2023-04-15T03:39:33;10.68;;;8.70;;
20830;SDS011;10576;53.556;9.868;2023-04-15T03:42:00;10.75;;;8.45;;
20830;SDS011;10576;53.556;9.868;2023-04-15T03:44:26;11.27;;;9.20;;
20830;SDS011;10576;53.556;9.868;2023-04-15T03:46:51;10.60;;;8.80;;
20830;SDS011;10576;53.556;9.868;2023-04-15T03:49:17;11.45;;;9.10;;
20830;SDS011;10576;53.556;9.868;2023-04-15T03:51:43;12.30;;;9.43;;
20830;SDS011;10576;53.556;9.868;2023-04-15T03:54:10;12.38;;;9.38;;
20830;SDS011;10576;53.556;9.868;2023-04-15T03:56:36;12.57;;;9.40;;
20830;SDS011;10576;53.556;9.868;2023-04-15T03:59:02;12.33;;;9.43;;
20830;SDS011;10576;53.556;9.868;2023-04-15T04:01:28;12.63;;;9.82;;
20830;SDS011;10576;53.556;9.868;2023-04-15T04:03:54;13.80;;;10.07;;
20830;SDS011;10576;53.556;9.868;2023-04-15T04:06:19;13.82;;;10.23;;
20830;SDS011;10576;53.556;9.868;2023-04-15T04:08:45;14.70;;;10.73;;
20830;SDS011;10576;53.556;9.868;2023-04-15T04:11:11;15.50;;;11.13;;
20830;SDS011;10576;53.556;9.868;2023-04-15T04:13:37;14.63;;;11.13;;
20830;SDS011;10576;53.556;9.868;2023-04-15T04:16:02;14.93;;;11.20;;
20830;SDS011;10576;53.556;9.868;2023-04-15T04:18:29;15.38;;;11.52;;
20830;SDS011;10576;53.556;9.868;2023-04-15T04:20:55;14.87;;;11.50;;
20830;SDS011;10576;53.556;9.868;2023-04-15T04:23:21;14.77;;;10.67;;
20830;SDS011;10576;53.556;9.868;2023-04-15T04:25:47;16.00;;;11.40;;
20830;SDS011;10576;53.556;9.868;2023-04-15T04:28:12;15.20;;;11.57;;
20830;SDS011;10576;53.556;9.868;2023-04-15T04:30:38;15.82;;;11.50;;
20830;SDS011;10576;53.556;9.868;2023-04-15T04:33:04;15.02;;;10.85;;
20830;SDS011;10576;53.556;9.868;2023-04-15T04:35:30;15.27;;;11.68;;
20830;SDS011;10576;53.556;9.868;2023-04-15T04:37:58;15.63;;;11.10;;
20830;SDS011;10576;53.556;9.868;2023-04-15T04:40:24;14.35;;;11.30;;
20830;SDS011;10576;53.556;9.868;2023-04-15T04:42:51;15.90;;;10.90;;
20830;SDS011;10576;53.556;9.868;2023-04-15T04:45:17;16.13;;;11.50;;
20830;SDS011;10576;53.556;9.868;2023-04-15T04:47:43;17.03;;;11.93;;
20830;SDS011;10576;53.556;9.868;2023-04-15T04:50:08;17.37;;;11.67;;
20830;SDS011;10576;53.556;9.868;2023-04-15T04:52:35;16.95;;;12.00;;
20830;SDS011;10576;53.556;9.868;2023-04-15T04:55:00;17.48;;;12.18;;
20830;SDS011;10576;53.556;9.868;2023-04-15T04:57:26;18.07;;;12.90;;
20830;SDS011;10576;53.556;9.868;2023-04-15T04:59:52;20.50;;;13.33;;
20830;SDS011;10576;53.556;9.868;2023-04-15T05:02:17;19.07;;;13.17;;
20830;SDS011;10576;53.556;9.868;2023-04-15T05:04:43;19.47;;;13.80;;
20830;SDS011;10576;53.556;9.868;2023-04-15T05:07:09;19.95;;;13.88;;
20830;SDS011;10576;53.556;9.868;2023-04-15T05:09:35;20.73;;;14.50;;
20830;SDS011;10576;53.556;9.868;2023-04-15T05:12:01;23.57;;;15.03;;
20830;SDS011;10576;53.556;9.868;2023-04-15T05:14:28;24.95;;;15.15;;
20830;SDS011;10576;53.556;9.868;2023-04-15T05:16:54;23.33;;;15.32;;
20830;SDS011;10576;53.556;9.868;2023-04-15T05:19:20;23.70;;;15.63;;
20830;SDS011;10576;53.556;9.868;2023-04-15T05:21:46;27.40;;;16.00;;
20830;SDS011;10576;53.556;9.868;2023-04-15T05:24:12;22.37;;;15.73;;
20830;SDS011;10576;53.556;9.868;2023-04-15T05:26:37;25.03;;;16.30;;
20830;SDS011;10576;53.556;9.868;2023-04-15T05:29:03;25.00;;;16.70;;
20830;SDS011;10576;53.556;9.868;2023-04-15T05:31:29;24.30;;;15.85;;
20830;SDS011;10576;53.556;9.868;2023-04-15T05:33:54;25.63;;;16.75;;
20830;SDS011;10576;53.556;9.868;2023-04-15T05:36:20;26.67;;;16.90;;
20830;SDS011;10576;53.556;9.868;2023-04-15T05:38:47;26.45;;;17.55;;
20830;SDS011;10576;53.556;9.868;2023-04-15T05:41:12;26.13;;;16.70;;
20830;SDS011;10576;53.556;9.868;2023-04-15T05:43:39;25.50;;;17.20;;
20830;SDS011;10576;53.556;9.868;2023-04-15T05:46:05;26.20;;;17.60;;
20830;SDS011;10576;53.556;9.868;2023-04-15T05:48:32;28.33;;;17.92;;
20830;SDS011;10576;53.556;9.868;2023-04-15T05:50:58;28.00;;;18.00;;
20830;SDS011;10576;53.556;9.868;2023-04-15T05:53:24;27.80;;;18.90;;
20830;SDS011;10576;53.556;9.868;2023-04-15T05:55:50;26.33;;;18.77;;
20830;SDS011;10576;53.556;9.868;2023-04-15T05:58:16;27.17;;;18.40;;
20830;SDS011;10576;53.556;9.868;2023-04-15T06:00:42;28.87;;;18.70;;
20830;SDS011;10576;53.556;9.868;2023-04-15T06:03:08;27.80;;;18.60;;
20830;SDS011;10576;53.556;9.868;2023-04-15T06:05:35;27.05;;;18.13;;
20830;SDS011;10576;53.556;9.868;2023-04-15T06:08:01;29.10;;;19.13;;
20830;SDS011;10576;53.556;9.868;2023-04-15T06:10:27;27.98;;;18.95;;
20830;SDS011;10576;53.556;9.868;2023-04-15T06:12:52;29.40;;;19.30;;
20830;SDS011;10576;53.556;9.868;2023-04-15T06:15:18;31.42;;;20.00;;
20830;SDS011;10576;53.556;9.868;2023-04-15T06:17:44;29.80;;;20.07;;
20830;SDS011;10576;53.556;9.868;2023-04-15T06:20:09;30.83;;;19.93;;
20830;SDS011;10576;53.556;9.868;2023-04-15T06:22:36;31.90;;;21.00;;
20830;SDS011;10576;53.556;9.868;2023-04-15T06:25:05;30.25;;;20.42;;
20830;SDS011;10576;53.556;9.868;2023-04-15T06:27:33;34.88;;;21.38;;
20830;SDS011;10576;53.556;9.868;2023-04-15T06:29:59;31.70;;;20.67;;
20830;SDS011;10576;53.556;9.868;2023-04-15T06:32:24;31.67;;;21.10;;
20830;SDS011;10576;53.556;9.868;2023-04-15T06:34:50;31.75;;;21.30;;
20830;SDS011;10576;53.556;9.868;2023-04-15T06:37:16;34.60;;;22.60;;
20830;SDS011;10576;53.556;9.868;2023-04-15T06:39:42;35.72;;;22.42;;
20830;SDS011;10576;53.556;9.868;2023-04-15T06:42:09;31.80;;;22.17;;
20830;SDS011;10576;53.556;9.868;2023-04-15T06:44:36;33.13;;;22.52;;
20830;SDS011;10576;53.556;9.868;2023-04-15T06:47:02;35.30;;;23.50;;
20830;SDS011;10576;53.556;9.868;2023-04-15T06:49:28;35.97;;;23.95;;
20830;SDS011;10576;53.556;9.868;2023-04-15T06:51:53;36.40;;;24.25;;
20830;SDS011;10576;53.556;9.868;2023-04-15T06:54:19;39.72;;;25.30;;
20830;SDS011;10576;53.556;9.868;2023-04-15T06:56:46;38.97;;;24.93;;
20830;SDS011;10576;53.556;9.868;2023-04-15T06:59:12;36.05;;;23.30;;
20830;SDS011;10576;53.556;9.868;2023-04-15T07:01:39;38.17;;;25.52;;
20830;SDS011;10576;53.556;9.868;2023-04-15T07:04:05;38.83;;;24.92;;
20830;SDS011;10576;53.556;9.868;2023-04-15T07:06:31;39.03;;;25.83;;
20830;SDS011;10576;53.556;9.868;2023-04-15T07:08:57;37.92;;;24.77;;
20830;SDS011;10576;53.556;9.868;2023-04-15T07:11:24;37.88;;;25.08;;
20830;SDS011;10576;53.556;9.868;2023-04-15T07:13:50;42.00;;;26.48;;
20830;SDS011;10576;53.556;9.868;2023-04-15T07:16:16;40.72;;;25.75;;
20830;SDS011;10576;53.556;9.868;2023-04-15T07:18:42;38.35;;;25.38;;
20830;SDS011;10576;53.556;9.868;2023-04-15T07:21:08;40.92;;;26.15;;
20830;SDS011;10576;53.556;9.868;2023-04-15T07:23:33;41.20;;;27.35;;
20830;SDS011;10576;53.556;9.868;2023-04-15T07:25:59;43.73;;;26.87;;
20830;SDS011;10576;53.556;9.868;2023-04-15T07:28:25;42.35;;;26.85;;
20830;SDS011;10576;53.556;9.868;2023-04-15T07:30:51;44.00;;;27.80;;
20830;SDS011;10576;53.556;9.868;2023-04-15T07:33:17;41.80;;;27.00;;
20830;SDS011;10576;53.556;9.868;2023-04-15T07:35:43;41.63;;;27.03;;
20830;SDS011;10576;53.556;9.868;2023-04-15T07:38:09;40.45;;;26.40;;
20830;SDS011;10576;53.556;9.868;2023-04-15T07:40:36;42.58;;;26.83;;
20830;SDS011;10576;53.556;9.868;2023-04-15T07:43:04;41.65;;;26.98;;
20830;SDS011;10576;53.556;9.868;2023-04-15T07:45:30;41.63;;;26.20;;
20830;SDS011;10576;53.556;9.868;2023-04-15T07:47:56;42.45;;;27.40;;
20830;SDS011;10576;53.556;9.868;2023-04-15T07:50:22;45.08;;;27.83;;
20830;SDS011;10576;53.556;9.868;2023-04-15T07:52:51;43.95;;;27.23;;
20830;SDS011;10576;53.556;9.868;2023-04-15T07:55:17;43.58;;;27.52;;
20830;SDS011;10576;53.556;9.868;2023-04-15T07:57:45;42.67;;;28.87;;
20830;SDS011;10576;53.556;9.868;2023-04-15T08:00:14;45.83;;;28.38;;
20830;SDS011;10576;53.556;9.868;2023-04-15T08:02:40;45.97;;;29.08;;
20830;SDS011;10576;53.556;9.868;2023-04-15T08:05:12;42.70;;;27.15;;
20830;SDS011;10576;53.556;9.868;2023-04-15T08:07:38;44.40;;;28.47;;
20830;SDS011;10576;53.556;9.868;2023-04-15T08:10:05;44.83;;;28.23;;
20830;SDS011;10576;53.556;9.868;2023-04-15T08:12:31;47.97;;;29.58;;
20830;SDS011;10576;53.556;9.868;2023-04-15T08:14:56;42.90;;;28.17;;
20830;SDS011;10576;53.556;9.868;2023-04-15T08:17:22;42.28;;;27.75;;
20830;SDS011;10576;53.556;9.868;2023-04-15T08:19:48;41.55;;;27.83;;
20830;SDS011;10576;53.556;9.868;2023-04-15T08:22:14;47.23;;;28.50;;
20830;SDS011;10576;53.556;9.868;2023-04-15T08:24:40;44.47;;;28.80;;
20830;SDS011;10576;53.556;9.868;2023-04-15T08:27:06;43.15;;;28.55;;
20830;SDS011;10576;53.556;9.868;2023-04-15T08:29:32;47.33;;;29.20;;
20830;SDS011;10576;53.556;9.868;2023-04-15T08:31:58;45.78;;;29.17;;
20830;SDS011;10576;53.556;9.868;2023-04-15T08:34:25;45.30;;;29.58;;
20830;SDS011;10576;53.556;9.868;2023-04-15T08:36:52;44.35;;;28.58;;
20830;SDS011;10576;53.556;9.868;2023-04-15T08:39:18;44.17;;;29.00;;
20830;SDS011;10576;53.556;9.868;2023-04-15T08:41:47;48.47;;;33.92;;
20830;SDS011;10576;53.556;9.868;2023-04-15T08:44:20;48.00;;;29.80;;
20830;SDS011;10576;53.556;9.868;2023-04-15T08:46:50;45.80;;;31.10;;
20830;SDS011;10576;53.556;9.868;2023-04-15T08:49:17;43.47;;;29.17;;
20830;SDS011;10576;53.556;9.868;2023-04-15T08:51:45;46.72;;;30.92;;
20830;SDS011;10576;53.556;9.868;2023-04-15T08:54:11;44.58;;;29.95;;
20830;SDS011;10576;53.556;9.868;2023-04-15T08:56:37;43.75;;;29.48;;
20830;SDS011;10576;53.556;9.868;2023-04-15T08:59:04;48.33;;;31.27;;
20830;SDS011;10576;53.556;9.868;2023-04-15T09:01:31;50.27;;;31.07;;
20830;SDS011;10576;53.556;9.868;2023-04-15T09:03:57;50.28;;;31.10;;
20830;SDS011;10576;53.556;9.868;2023-04-15T09:06:24;48.97;;;30.67;;
20830;SDS011;10576;53.556;9.868;2023-04-15T09:08:50;47.10;;;30.83;;
20830;SDS011;10576;53.556;9.868;2023-04-15T09:11:16;48.53;;;30.70;;
20830;SDS011;10576;53.556;9.868;2023-04-15T09:13:42;46.55;;;31.25;;
20830;SDS011;10576;53.556;9.868;2023-04-15T09:16:08;45.42;;;30.23;;
20830;SDS011;10576;53.556;9.868;2023-04-15T09:18:35;43.25;;;30.15;;
20830;SDS011;10576;53.556;9.868;2023-04-15T09:21:06;46.55;;;30.38;;
20830;SDS011;10576;53.556;9.868;2023-04-15T09:23:35;46.58;;;29.63;;
20830;SDS011;10576;53.556;9.868;2023-04-15T09:26:01;44.08;;;29.98;;
20830;SDS011;10576;53.556;9.868;2023-04-15T09:28:28;43.40;;;29.30;;
20830;SDS011;10576;53.556;9.868;2023-04-15T09:30:57;43.50;;;28.25;;
20830;SDS011;10576;53.556;9.868;2023-04-15T09:33:24;43.47;;;28.53;;
20830;SDS011;10576;53.556;9.868;2023-04-15T09:35:55;42.95;;;29.38;;
20830;SDS011;10576;53.556;9.868;2023-04-15T09:38:25;44.22;;;29.40;;
20830;SDS011;10576;53.556;9.868;2023-04-15T09:40:51;41.88;;;29.15;;
20830;SDS011;10576;53.556;9.868;2023-04-15T09:43:17;44.75;;;29.55;;
20830;SDS011;10576;53.556;9.868;2023-04-15T09:45:47;44.33;;;29.10;;
20830;SDS011;10576;53.556;9.868;2023-04-15T09:48:23;43.13;;;28.92;;
20830;SDS011;10576;53.556;9.868;2023-04-15T09:50:52;44.63;;;29.13;;
20830;SDS011;10576;53.556;9.868;2023-04-15T09:53:22;41.30;;;27.75;;
20830;SDS011;10576;53.556;9.868;2023-04-15T09:55:49;43.15;;;28.35;;
20830;SDS011;10576;53.556;9.868;2023-04-15T09:58:23;41.22;;;27.70;;
20830;SDS011;10576;53.556;9.868;2023-04-15T10:00:51;39.03;;;26.75;;
20830;SDS011;10576;53.556;9.868;2023-04-15T10:03:21;40.30;;;27.20;;
20830;SDS011;10576;53.556;9.868;2023-04-15T10:05:49;41.53;;;28.55;;
20830;SDS011;10576;53.556;9.868;2023-04-15T10:08:17;38.85;;;27.42;;
20830;SDS011;10576;53.556;9.868;2023-04-15T10:10:44;42.13;;;30.38;;
20830;SDS011;10576;53.556;9.868;2023-04-15T10:13:21;43.15;;;30.33;;
20830;SDS011;10576;53.556;9.868;2023-04-15T10:15:55;43.88;;;29.40;;
20830;SDS011;10576;53.556;9.868;2023-04-15T10:18:24;42.28;;;29.55;;
20830;SDS011;10576;53.556;9.868;2023-04-15T10:20:51;43.03;;;29.38;;
20830;SDS011;10576;53.556;9.868;2023-04-15T10:23:18;40.77;;;27.90;;
20830;SDS011;10576;53.556;9.868;2023-04-15T10:25:45;38.10;;;26.48;;
20830;SDS011;10576;53.556;9.868;2023-04-15T10:28:13;35.50;;;26.50;;
20830;SDS011;10576;53.556;9.868;2023-04-15T10:30:40;36.67;;;26.40;;
20830;SDS011;10576;53.556;9.868;2023-04-15T10:33:07;39.03;;;26.53;;
20830;SDS011;10576;53.556;9.868;2023-04-15T10:35:35;35.88;;;26.05;;
20830;SDS011;10576;53.556;9.868;2023-04-15T10:38:01;34.20;;;24.38;;
20830;SDS011;10576;53.556;9.868;2023-04-15T10:40:47;35.35;;;25.25;;
20830;SDS011;10576;53.556;9.868;2023-04-15T10:43:23;34.95;;;26.30;;
20830;SDS011;10576;53.556;9.868;2023-04-15T10:45:51;33.00;;;25.90;;
20830;SDS011;10576;53.556;9.868;2023-04-15T10:48:18;32.85;;;25.45;;
20830;SDS011;10576;53.556;9.868;2023-04-15T10:50:54;32.63;;;25.83;;
20830;SDS011;10576;53.556;9.868;2023-04-15T10:53:26;31.75;;;25.40;;
20830;SDS011;10576;53.556;9.868;2023-04-15T10:55:53;31.00;;;25.07;;
20830;SDS011;10576;53.556;9.868;2023-04-15T10:58:22;30.60;;;23.20;;
20830;SDS011;10576;53.556;9.868;2023-04-15T11:00:49;30.13;;;23.10;;
20830;SDS011;10576;53.556;9.868;2023-04-15T11:03:38;26.40;;;21.95;;
20830;SDS011;10576;53.556;9.868;2023-04-15T11:06:06;27.23;;;22.15;;
20830;SDS011;10576;53.556;9.868;2023-04-15T11:09:05;27.60;;;22.25;;
20830;SDS011;10576;53.556;9.868;2023-04-15T11:14:35;24.10;;;19.75;;
20830;SDS011;10576;53.556;9.868;2023-04-15T11:17:05;23.55;;;19.63;;
20830;SDS011;10576;53.556;9.868;2023-04-15T11:19:34;21.05;;;18.05;;
20830;SDS011;10576;53.556;9.868;2023-04-15T11:22:08;23.58;;;18.48;;
20830;SDS011;10576;53.556;9.868;2023-04-15T11:24:35;22.75;;;18.80;;
20830;SDS011;10576;53.556;9.868;2023-04-15T11:27:01;22.23;;;18.17;;
20830;SDS011;10576;53.556;9.868;2023-04-15T11:29:31;19.70;;;17.60;;
20830;SDS011;10576;53.556;9.868;2023-04-15T11:32:07;20.95;;;17.02;;
20830;SDS011;10576;53.556;9.868;2023-04-15T11:34:34;18.38;;;16.25;;
20830;SDS011;10576;53.556;9.868;2023-04-15T11:37:02;18.15;;;14.98;;
20830;SDS011;10576;53.556;9.868;2023-04-15T11:39:29;15.88;;;13.55;;
20830;SDS011;10576;53.556;9.868;2023-04-15T11:41:55;16.30;;;13.40;;
20830;SDS011;10576;53.556;9.868;2023-04-15T11:44:22;14.20;;;12.73;;
20830;SDS011;10576;53.556;9.868;2023-04-15T11:46:47;15.07;;;12.60;;
20830;SDS011;10576;53.556;9.868;2023-04-15T11:49:28;13.50;;;12.03;;
20830;SDS011;10576;53.556;9.868;2023-04-15T11:51:58;13.82;;;12.43;;
20830;SDS011;10576;53.556;9.868;2023-04-15T11:54:25;13.90;;;11.77;;
20830;SDS011;10576;53.556;9.868;2023-04-15T11:56:50;14.07;;;11.30;;
20830;SDS011;10576;53.556;9.868;2023-04-15T11:59:17;13.40;;;11.30;;
20830;SDS011;10576;53.556;9.868;2023-04-15T12:01:43;12.25;;;10.90;;
20830;SDS011;10576;53.556;9.868;2023-04-15T12:04:11;14.93;;;10.90;;
20830;SDS011;10576;53.556;9.868;2023-04-15T12:06:38;14.80;;;11.18;;
20830;SDS011;10576;53.556;9.868;2023-04-15T12:16:31;11.40;;;9.80;;
20830;SDS011;10576;53.556;9.868;2023-04-15T12:18:58;10.95;;;9.77;;
20830;SDS011;10576;53.556;9.868;2023-04-15T12:21:25;12.50;;;9.63;;
20830;SDS011;10576;53.556;9.868;2023-04-15T12:24:00;11.73;;;9.50;;
20830;SDS011;10576;53.556;9.868;2023-04-15T12:26:31;11.10;;;9.75;;
20830;SDS011;10576;53.556;9.868;2023-04-15T12:31:32;12.63;;;11.07;;
20830;SDS011;10576;53.556;9.868;2023-04-15T12:34:02;11.25;;;10.15;;
20830;SDS011;10576;53.556;9.868;2023-04-15T12:36:29;11.73;;;10.60;;
20830;SDS011;10576;53.556;9.868;2023-04-15T12:39:00;11.40;;;10.30;;
20830;SDS011;10576;53.556;9.868;2023-04-15T12:41:27;11.57;;;9.70;;
20830;SDS011;10576;53.556;9.868;2023-04-15T12:43:52;11.20;;;9.57;;
20830;SDS011;10576;53.556;9.868;2023-04-15T12:46:18;10.87;;;9.77;;
20830;SDS011;10576;53.556;9.868;2023-04-15T12:48:44;11.73;;;10.02;;
20830;SDS011;10576;53.556;9.868;2023-04-15T12:51:10;12.90;;;10.10;;
20830;SDS011;10576;53.556;9.868;2023-04-15T12:53:35;11.48;;;9.65;;
20830;SDS011;10576;53.556;9.868;2023-04-15T12:56:02;11.00;;;9.67;;
20830;SDS011;10576;53.556;9.868;2023-04-15T12:58:28;10.55;;;9.45;;
20830;SDS011;10576;53.556;9.868;2023-04-15T13:00:54;10.50;;;9.50;;
20830;SDS011;10576;53.556;9.868;2023-04-15T13:03:21;11.25;;;9.77;;
20830;SDS011;10576;53.556;9.868;2023-04-15T13:05:47;11.00;;;9.90;;
20830;SDS011;10576;53.556;9.868;2023-04-15T13:08:12;12.77;;;10.17;;
20830;SDS011;10576;53.556;9.868;2023-04-15T13:10:38;13.13;;;10.40;;
20830;SDS011;10576;53.556;9.868;2023-04-15T13:13:04;11.50;;;10.30;;
20830;SDS011;10576;53.556;9.868;2023-04-15T13:15:30;11.57;;;10.38;;
20830;SDS011;10576;53.556;9.868;2023-04-15T13:17:56;10.95;;;9.85;;
20830;SDS011;10576;53.556;9.868;2023-04-15T13:20:21;13.10;;;10.75;;
20830;SDS011;10576;53.556;9.868;2023-04-15T13:22:47;12.77;;;10.70;;
20830;SDS011;10576;53.556;9.868;2023-04-15T13:25:13;11.82;;;10.52;;
20830;SDS011;10576;53.556;9.868;2023-04-15T13:27:38;11.60;;;10.40;;
20830;SDS011;10576;53.556;9.868;2023-04-15T13:30:04;12.55;;;10.93;;
20830;SDS011;10576;53.556;9.868;2023-04-15T13:32:31;11.93;;;10.48;;
20830;SDS011;10576;53.556;9.868;2023-04-15T13:34:58;11.90;;;10.70;;
20830;SDS011;10576;53.556;9.868;2023-04-15T13:37:25;11.98;;;10.18;;
20830;SDS011;10576;53.556;9.868;2023-04-15T13:39:51;11.18;;;10.07;;
20830;SDS011;10576;53.556;9.868;2023-04-15T13:42:17;11.77;;;9.83;;
20830;SDS011;10576;53.556;9.868;2023-04-15T13:44:43;10.55;;;9.45;;
20830;SDS011;10576;53.556;9.868;2023-04-15T13:47:09;10.82;;;9.75;;
20830;SDS011;10576;53.556;9.868;2023-04-15T13:49:35;11.43;;;9.48;;
20830;SDS011;10576;53.556;9.868;2023-04-15T13:52:01;10.93;;;9.48;;
20830;SDS011;10576;53.556;9.868;2023-04-15T13:54:27;10.47;;;9.47;;
20830;SDS011;10576;53.556;9.868;2023-04-15T13:56:53;10.80;;;9.70;;
20830;SDS011;10576;53.556;9.868;2023-04-15T13:59:21;10.57;;;9.48;;
20830;SDS011;10576;53.556;9.868;2023-04-15T14:01:47;10.60;;;9.55;;
20830;SDS011;10576;53.556;9.868;2023-04-15T14:04:12;11.13;;;9.50;;
20830;SDS011;10576;53.556;9.868;2023-04-15T14:06:38;10.77;;;9.23;;
20830;SDS011;10576;53.556;9.868;2023-04-15T14:09:04;9.85;;;8.85;;
20830;SDS011;10576;53.556;9.868;2023-04-15T14:11:29;9.73;;;8.73;;
20830;SDS011;10576;53.556;9.868;2023-04-15T14:13:55;9.63;;;8.65;;
20830;SDS011;10576;53.556;9.868;2023-04-15T14:16:21;10.33;;;8.83;;
20830;SDS011;10576;53.556;9.868;2023-04-15T14:18:47;9.43;;;8.52;;
20830;SDS011;10576;53.556;9.868;2023-04-15T14:21:12;9.23;;;8.23;;
20830;SDS011;10576;53.556;9.868;2023-04-15T14:23:38;8.65;;;7.80;;
20830;SDS011;10576;53.556;9.868;2023-04-15T14:26:04;9.30;;;8.30;;
20830;SDS011;10576;53.556;9.868;2023-04-15T14:28:29;9.60;;;8.60;;
20830;SDS011;10576;53.556;9.868;2023-04-15T14:30:56;9.35;;;8.45;;
20830;SDS011;10576;53.556;9.868;2023-04-15T14:33:21;9.07;;;7.77;;
20830;SDS011;10576;53.556;9.868;2023-04-15T14:35:48;10.57;;;8.33;;
20830;SDS011;10576;53.556;9.868;2023-04-15T14:38:15;10.20;;;7.97;;
20830;SDS011;10576;53.556;9.868;2023-04-15T14:40:40;9.30;;;8.40;;